Time;durP1;ratioP1;P1;durP2;ratioP2;P2;SDS_P1;SDS_P2;PMS_P1;PMS_P2;Temp;Humidity;BMP_temperature;BMP_pressure;BME280_temperature;BME280_humidity;BME280_pressure;Samples;Min_cycle;Max_cycle;Signal;HPM_P1;HPM_P2
2023/07/27 00:00:49;;;;;;;11.80;6.45;;;16.80;87.40;;;;;;4953014;28;20511;-74
2023/07/27 00:03:14;;;;;;;10.45;6.05;;;16.80;87.40;;;;;;4946904;28;20036;-73
2023/07/27 00:05:40;;;;;;;9.02;5.95;;;16.80;87.50;;;;;;4947566;28;20031;-73
2023/07/27 00:08:06;;;;;;;11.68;6.97;;;16.80;87.40;;;;;;4947647;28;20023;-73
2023/07/27 00:10:31;;;;;;;10.63;6.30;;;16.80;87.50;;;;;;4952971;28;20395;-73
2023/07/27 00:12:57;;;;;;;12.10;7.07;;;16.70;87.50;;;;;;4965020;28;20494;-73
2023/07/27 00:15:23;;;;;;;9.82;6.22;;;16.70;87.70;;;;;;4964585;28;20512;-73
2023/07/27 00:17:49;;;;;;;10.63;6.60;;;16.70;87.80;;;;;;4950815;28;20023;-74
2023/07/27 00:20:15;;;;;;;10.13;6.03;;;16.70;87.90;;;;;;4956184;28;20027;-75
2023/07/27 00:22:40;;;;;;;9.43;6.07;;;16.60;87.80;;;;;;4964859;28;20110;-74
2023/07/27 00:25:06;;;;;;;10.98;5.95;;;16.60;88.30;;;;;;4963955;28;20062;-74
2023/07/27 00:27:32;;;;;;;10.27;5.68;;;16.60;88.10;;;;;;4967241;28;20062;-74
2023/07/27 00:29:57;;;;;;;10.02;6.18;;;16.60;88.00;;;;;;4967989;28;20062;-74
2023/07/27 00:32:23;;;;;;;10.32;5.93;;;16.60;88.10;;;;;;4949713;28;20031;-77
2023/07/27 00:34:52;;;;;;;11.07;6.50;;;16.60;88.30;;;;;;4950806;28;20031;-73
2023/07/27 00:37:18;;;;;;;9.60;6.07;;;16.50;88.30;;;;;;4966665;28;20054;-73
2023/07/27 00:39:43;;;;;;;10.48;6.78;;;16.60;88.60;;;;;;4966863;28;20023;-74
2023/07/27 00:42:09;;;;;;;10.57;6.70;;;16.50;88.50;;;;;;4960411;28;20492;-75
2023/07/27 00:44:34;;;;;;;10.10;6.82;;;16.50;88.70;;;;;;4936638;28;20173;-74
2023/07/27 00:47:00;;;;;;;10.85;6.95;;;16.50;88.60;;;;;;4946560;28;20075;-74
2023/07/27 00:49:26;;;;;;;10.35;6.72;;;16.60;88.60;;;;;;4951868;28;20048;-74
2023/07/27 00:51:52;;;;;;;11.23;6.85;;;16.60;88.70;;;;;;4961980;28;20186;-75
2023/07/27 00:54:18;;;;;;;10.35;6.72;;;16.50;88.80;;;;;;4970372;28;20104;-73
2023/07/27 00:56:44;;;;;;;9.80;6.47;;;16.50;88.80;;;;;;4982202;28;20709;-75
2023/07/27 00:59:10;;;;;;;11.88;6.45;;;16.50;89.10;;;;;;4965857;28;20117;-74
2023/07/27 01:01:36;;;;;;;11.48;6.35;;;16.50;89.20;;;;;;4952093;28;20057;-74
2023/07/27 01:04:02;;;;;;;12.60;6.40;;;16.50;89.20;;;;;;4947643;28;20075;-74
2023/07/27 01:06:27;;;;;;;9.35;5.55;;;16.50;89.30;;;;;;4943860;28;20035;-75
2023/07/27 01:08:54;;;;;;;11.15;5.82;;;16.50;89.20;;;;;;4946667;28;20471;-74
2023/07/27 01:11:38;;;;;;;10.45;6.25;;;16.60;89.40;;;;;;4945923;28;20538;-74
2023/07/27 01:14:14;;;;;;;9.55;6.03;;;16.50;89.20;;;;;;4946538;29;20070;-73
2023/07/27 01:16:57;;;;;;;13.63;6.18;;;16.50;89.50;;;;;;4951302;28;20077;-74
2023/07/27 01:19:42;;;;;;;8.82;5.55;;;16.50;89.60;;;;;;4946061;28;20026;-74
2023/07/27 01:22:26;;;;;;;10.35;6.50;;;16.60;89.60;;;;;;4947337;28;20038;-75
2023/07/27 01:25:07;;;;;;;10.43;5.80;;;16.50;89.70;;;;;;4945164;29;20057;-74
2023/07/27 01:28:06;;;;;;;10.30;6.10;;;16.50;89.90;;;;;;4943010;29;20023;-74
2023/07/27 01:30:57;;;;;;;10.10;6.50;;;16.50;89.90;;;;;;4943513;28;20035;-75
2023/07/27 01:33:36;;;;;;;10.55;6.55;;;16.50;90.20;;;;;;4944227;29;20118;-74
2023/07/27 01:36:08;;;;;;;11.10;6.55;;;16.50;90.20;;;;;;4944309;28;20123;-75
2023/07/27 01:38:37;;;;;;;11.95;6.50;;;16.60;90.20;;;;;;4943305;29;20284;-76
2023/07/27 01:41:06;;;;;;;10.93;6.43;;;16.60;90.30;;;;;;4940438;28;20605;-73
2023/07/27 01:43:32;;;;;;;11.25;6.40;;;16.50;90.40;;;;;;4941825;28;20479;-73
2023/07/27 01:45:59;;;;;;;10.00;6.38;;;16.50;90.60;;;;;;4942911;28;20054;-73
2023/07/27 01:48:26;;;;;;;9.57;6.15;;;16.50;90.70;;;;;;4945568;29;20059;-74
2023/07/27 01:50:54;;;;;;;9.60;6.32;;;16.60;90.80;;;;;;4942882;28;20499;-74
2023/07/27 01:53:21;;;;;;;9.77;5.90;;;16.60;90.80;;;;;;4944735;28;20614;-74
2023/07/27 01:55:47;;;;;;;9.93;5.95;;;16.60;90.70;;;;;;4945014;28;20732;-73
2023/07/27 01:58:16;;;;;;;10.20;6.13;;;16.50;90.80;;;;;;4947000;29;20444;-74
2023/07/27 02:00:42;;;;;;;9.32;5.88;;;16.60;91.00;;;;;;4945496;28;20028;-73
2023/07/27 02:03:10;;;;;;;8.52;5.35;;;16.60;91.00;;;;;;4945808;28;20035;-74
2023/07/27 02:05:35;;;;;;;9.45;6.03;;;16.60;91.10;;;;;;4946795;28;20031;-74
2023/07/27 02:08:01;;;;;;;8.38;5.60;;;16.60;91.10;;;;;;4946214;29;20098;-74
2023/07/27 02:10:29;;;;;;;8.88;5.70;;;16.60;91.30;;;;;;4944463;28;20051;-73
2023/07/27 02:13:06;;;;;;;9.63;5.60;;;16.60;91.20;;;;;;4942539;29;20221;-75
2023/07/27 02:15:38;;;;;;;10.60;6.05;;;16.60;91.20;;;;;;4955725;28;20097;-75
2023/07/27 02:18:09;;;;;;;8.02;5.32;;;16.60;91.30;;;;;;4972300;28;20110;-76
2023/07/27 02:20:37;;;;;;;9.13;5.80;;;16.60;91.50;;;;;;4969577;28;20046;-74
2023/07/27 02:23:05;;;;;;;8.40;6.05;;;16.60;91.40;;;;;;4971444;28;20212;-73
2023/07/27 02:25:31;;;;;;;9.60;6.15;;;16.60;91.50;;;;;;4963875;28;20043;-73
2023/07/27 02:27:57;;;;;;;8.48;6.22;;;16.60;91.50;;;;;;4952855;28;20523;-76
2023/07/27 02:30:23;;;;;;;9.63;6.57;;;16.60;91.60;;;;;;4963743;28;20098;-73
2023/07/27 02:32:48;;;;;;;8.32;6.57;;;16.60;91.50;;;;;;4950235;28;20082;-73
2023/07/27 02:35:14;;;;;;;10.55;6.13;;;16.60;91.60;;;;;;4951405;28;20082;-75
2023/07/27 02:37:40;;;;;;;9.25;6.25;;;16.60;91.60;;;;;;4956452;28;20324;-73
2023/07/27 02:40:06;;;;;;;8.75;6.97;;;16.70;91.70;;;;;;4956211;28;20042;-73
2023/07/27 02:42:32;;;;;;;8.52;6.32;;;16.70;91.80;;;;;;4976256;28;20051;-74
2023/07/27 02:44:57;;;;;;;9.90;6.43;;;16.70;91.70;;;;;;4978397;28;20031;-73
2023/07/27 02:47:23;;;;;;;9.43;6.70;;;16.70;91.80;;;;;;4970136;28;20416;-75
2023/07/27 02:49:49;;;;;;;9.80;6.72;;;16.70;91.90;;;;;;4969504;28;20026;-73
2023/07/27 02:52:14;;;;;;;9.70;6.50;;;16.70;92.00;;;;;;4967840;28;20037;-74
2023/07/27 02:54:40;;;;;;;9.02;6.50;;;16.70;91.80;;;;;;4969325;28;20031;-75
2023/07/27 02:57:06;;;;;;;11.02;6.82;;;16.70;92.00;;;;;;4967892;28;20038;-75
2023/07/27 02:59:31;;;;;;;9.27;6.75;;;16.70;92.00;;;;;;4965741;28;20023;-75
2023/07/27 03:02:00;;;;;;;9.35;6.95;;;16.70;91.90;;;;;;4968581;28;20150;-77
2023/07/27 03:04:26;;;;;;;9.57;6.22;;;16.70;91.90;;;;;;4968246;28;20026;-75
2023/07/27 03:06:51;;;;;;;9.15;6.43;;;16.70;91.80;;;;;;4967228;28;20038;-74
2023/07/27 03:09:17;;;;;;;8.90;6.22;;;16.70;92.00;;;;;;4966080;28;20026;-74
2023/07/27 03:11:42;;;;;;;10.77;7.35;;;16.80;92.00;;;;;;4965852;28;20110;-74
2023/07/27 03:14:09;;;;;;;10.10;7.45;;;16.70;92.00;;;;;;4969267;28;20102;-74
2023/07/27 03:16:35;;;;;;;10.35;7.80;;;16.70;92.10;;;;;;4967526;28;20035;-73
2023/07/27 03:19:00;;;;;;;9.60;7.03;;;16.70;92.00;;;;;;4967405;28;20098;-74
2023/07/27 03:21:26;;;;;;;11.15;6.93;;;16.70;92.10;;;;;;4968463;28;20039;-74
2023/07/27 03:23:52;;;;;;;9.73;7.63;;;16.80;92.10;;;;;;4967010;28;20038;-73
2023/07/27 03:26:18;;;;;;;9.40;7.63;;;16.80;92.10;;;;;;4965937;28;20035;-74
2023/07/27 03:28:43;;;;;;;9.85;7.25;;;16.80;92.20;;;;;;4966600;28;20077;-73
2023/07/27 03:31:20;;;;;;;10.38;7.63;;;16.80;92.20;;;;;;4966374;28;20518;-76
2023/07/27 03:33:47;;;;;;;9.77;7.05;;;16.80;92.30;;;;;;4967774;28;20082;-76
2023/07/27 03:36:14;;;;;;;9.07;7.47;;;16.90;92.40;;;;;;4972936;28;20522;-77
2023/07/27 03:38:40;;;;;;;9.93;8.07;;;16.90;92.50;;;;;;4968097;28;20019;-76
2023/07/27 03:41:05;;;;;;;9.10;6.65;;;17.00;92.40;;;;;;4965400;28;20645;-76
2023/07/27 03:43:31;;;;;;;10.20;7.70;;;17.00;92.40;;;;;;4948125;28;20027;-75
2023/07/27 03:45:57;;;;;;;10.13;7.43;;;17.00;92.40;;;;;;4945542;28;20715;-76
2023/07/27 03:48:23;;;;;;;11.43;7.70;;;17.00;92.40;;;;;;4945730;28;20464;-75
2023/07/27 03:50:48;;;;;;;10.80;7.55;;;17.00;92.50;;;;;;4945505;28;20031;-75
2023/07/27 03:53:14;;;;;;;9.93;7.45;;;17.00;92.50;;;;;;4948961;28;20106;-72
2023/07/27 03:55:40;;;;;;;11.13;8.38;;;17.10;92.60;;;;;;4950849;28;20407;-76
2023/07/27 03:58:06;;;;;;;10.57;7.47;;;17.10;92.60;;;;;;4967685;28;20027;-75
2023/07/27 04:00:32;;;;;;;11.55;7.82;;;17.10;92.70;;;;;;4965233;28;20062;-74
2023/07/27 04:02:57;;;;;;;9.77;7.65;;;17.10;92.60;;;;;;4963943;28;20178;-74
2023/07/27 04:05:24;;;;;;;10.27;8.13;;;17.10;92.70;;;;;;4964648;28;20030;-74
2023/07/27 04:07:51;;;;;;;13.88;8.05;;;17.10;92.70;;;;;;4966221;28;20038;-74
2023/07/27 04:10:17;;;;;;;9.35;7.55;;;17.20;92.70;;;;;;4966036;28;21004;-73
2023/07/27 04:12:43;;;;;;;11.98;7.57;;;17.20;92.80;;;;;;4968231;28;20309;-73
2023/07/27 04:15:09;;;;;;;11.02;7.82;;;17.20;92.80;;;;;;4964724;28;20406;-74
2023/07/27 04:17:35;;;;;;;10.82;8.55;;;17.30;92.80;;;;;;4967512;28;20075;-73
2023/07/27 04:20:00;;;;;;;9.95;8.30;;;17.30;92.70;;;;;;4966426;28;20546;-75
2023/07/27 04:22:26;;;;;;;11.65;8.25;;;17.30;92.80;;;;;;4967092;28;20498;-74
2023/07/27 04:24:52;;;;;;;12.30;8.95;;;17.30;92.80;;;;;;4966838;28;20062;-74
2023/07/27 04:27:18;;;;;;;10.10;7.97;;;17.30;92.70;;;;;;4965092;28;20067;-74
2023/07/27 04:29:43;;;;;;;12.43;8.85;;;17.30;92.80;;;;;;4966324;28;20022;-74
2023/07/27 04:32:09;;;;;;;13.13;7.95;;;17.40;92.90;;;;;;4956898;28;20039;-75
2023/07/27 04:34:35;;;;;;;11.55;7.32;;;17.40;92.90;;;;;;4963802;28;20644;-75
2023/07/27 04:37:00;;;;;;;10.90;7.25;;;17.50;92.90;;;;;;4966376;28;20617;-74
2023/07/27 04:39:26;;;;;;;10.80;7.13;;;17.50;92.90;;;;;;4966561;28;20023;-74
2023/07/27 04:41:52;;;;;;;10.32;8.27;;;17.50;92.80;;;;;;4964922;28;20059;-74
2023/07/27 04:44:18;;;;;;;12.18;7.97;;;17.50;92.70;;;;;;4953643;28;20032;-75
2023/07/27 04:46:43;;;;;;;9.75;7.55;;;17.60;92.70;;;;;;4959455;28;20062;-74
2023/07/27 04:49:12;;;;;;;11.90;8.82;;;17.60;92.70;;;;;;4947610;28;20022;-76
2023/07/27 04:51:37;;;;;;;12.23;8.20;;;17.60;92.60;;;;;;4965452;28;20042;-77
2023/07/27 04:54:03;;;;;;;10.65;8.55;;;17.60;92.60;;;;;;4967018;28;20423;-75
2023/07/27 04:56:29;;;;;;;14.02;8.50;;;17.60;92.60;;;;;;4965993;28;20050;-73
2023/07/27 04:58:55;;;;;;;10.18;7.45;;;17.60;92.70;;;;;;4985317;28;20038;-73
2023/07/27 05:01:21;;;;;;;10.05;7.05;;;17.60;92.70;;;;;;4966481;28;20042;-73
2023/07/27 05:03:46;;;;;;;11.32;7.70;;;17.60;92.80;;;;;;4965745;28;20449;-74
2023/07/27 05:06:12;;;;;;;10.45;7.38;;;17.60;92.70;;;;;;4968591;28;20039;-73
2023/07/27 05:08:38;;;;;;;9.88;7.22;;;17.60;92.80;;;;;;4966151;28;20030;-73
2023/07/27 05:11:06;;;;;;;9.73;6.97;;;17.60;92.80;;;;;;4965299;28;20039;-75
2023/07/27 05:13:33;;;;;;;10.60;7.82;;;17.60;92.90;;;;;;4962753;28;20030;-73
2023/07/27 05:15:58;;;;;;;11.40;7.20;;;17.60;92.90;;;;;;4955309;28;20067;-74
2023/07/27 05:18:24;;;;;;;12.43;7.30;;;17.60;92.90;;;;;;4946276;28;20062;-75
2023/07/27 05:20:50;;;;;;;10.32;6.57;;;17.60;92.80;;;;;;4957605;28;20035;-75
2023/07/27 05:23:15;;;;;;;9.40;6.50;;;17.60;92.90;;;;;;4965189;28;20031;-73
2023/07/27 05:25:41;;;;;;;8.80;6.75;;;17.60;92.90;;;;;;4963117;28;20054;-74
2023/07/27 05:28:07;;;;;;;10.45;6.40;;;17.60;92.90;;;;;;4964552;28;21502;-73
2023/07/27 05:30:33;;;;;;;9.13;5.82;;;17.60;92.90;;;;;;4960022;28;20039;-74
2023/07/27 05:32:58;;;;;;;8.75;6.43;;;17.70;92.90;;;;;;4945866;28;20089;-76
2023/07/27 05:35:24;;;;;;;10.82;6.57;;;17.70;93.00;;;;;;4948338;28;20060;-76
2023/07/27 05:37:50;;;;;;;8.52;6.00;;;17.70;93.00;;;;;;4963921;28;20026;-74
2023/07/27 05:40:16;;;;;;;9.85;5.50;;;17.70;93.00;;;;;;4957783;28;20027;-74
2023/07/27 05:42:43;;;;;;;9.45;6.13;;;17.80;92.90;;;;;;4954503;28;20563;-73
2023/07/27 05:45:09;;;;;;;9.30;5.35;;;17.80;92.80;;;;;;4954501;28;20050;-77
2023/07/27 05:47:35;;;;;;;10.02;6.18;;;17.80;92.80;;;;;;4965609;28;20014;-72
2023/07/27 05:50:02;;;;;;;8.90;5.57;;;17.80;92.90;;;;;;4964818;28;20030;-73
2023/07/27 05:52:27;;;;;;;8.30;5.53;;;17.80;92.90;;;;;;4966488;28;20239;-73
2023/07/27 05:54:53;;;;;;;9.65;5.53;;;17.80;92.80;;;;;;4974968;28;20043;-73
2023/07/27 05:57:19;;;;;;;9.10;5.45;;;17.80;92.80;;;;;;4964560;28;20050;-74
2023/07/27 05:59:44;;;;;;;7.65;5.10;;;17.90;92.70;;;;;;4966879;28;20042;-73
2023/07/27 06:02:10;;;;;;;9.15;4.95;;;17.90;92.60;;;;;;4966432;28;20137;-75
2023/07/27 06:04:36;;;;;;;9.27;4.55;;;17.90;92.60;;;;;;4967044;28;20464;-73
2023/07/27 06:07:01;;;;;;;7.88;4.53;;;18.00;92.50;;;;;;4962037;28;20047;-73
2023/07/27 06:09:27;;;;;;;7.43;4.25;;;18.00;92.40;;;;;;4945312;28;20053;-73
2023/07/27 06:11:53;;;;;;;9.60;4.70;;;18.00;92.30;;;;;;4946153;28;20636;-73
2023/07/27 06:14:19;;;;;;;8.50;4.78;;;17.90;92.00;;;;;;4961658;28;20083;-74
2023/07/27 06:16:44;;;;;;;10.20;4.63;;;17.90;91.90;;;;;;4946128;28;20047;-75
2023/07/27 06:19:10;;;;;;;8.52;4.43;;;17.80;91.60;;;;;;4955033;28;20479;-74
2023/07/27 06:21:36;;;;;;;8.85;4.93;;;17.70;91.40;;;;;;4945588;28;20106;-73
2023/07/27 06:24:02;;;;;;;10.35;4.72;;;17.70;91.20;;;;;;4947413;28;20480;-73
2023/07/27 06:26:27;;;;;;;8.27;4.90;;;17.60;91.40;;;;;;4945256;28;20051;-72
2023/07/27 06:28:53;;;;;;;9.05;4.50;;;17.70;91.50;;;;;;4947488;28;20445;-73
2023/07/27 06:31:19;;;;;;;9.93;5.40;;;17.70;91.50;;;;;;4945598;28;20035;-73
2023/07/27 06:33:44;;;;;;;7.53;4.47;;;17.80;91.40;;;;;;4946998;28;20082;-73
2023/07/27 06:36:11;;;;;;;9.52;4.65;;;17.80;91.20;;;;;;4943777;28;20039;-74
2023/07/27 06:38:38;;;;;;;8.35;4.40;;;17.90;91.10;;;;;;4975926;28;20023;-75
2023/07/27 06:41:04;;;;;;;9.13;4.80;;;17.90;91.00;;;;;;4956365;28;20061;-75
2023/07/27 06:43:30;;;;;;;9.10;4.25;;;17.90;91.00;;;;;;4963074;28;20395;-74
2023/07/27 06:45:56;;;;;;;9.75;4.28;;;18.00;90.90;;;;;;4962580;28;20054;-75
2023/07/27 06:48:22;;;;;;;8.55;4.13;;;18.00;90.80;;;;;;4966254;28;20494;-74
2023/07/27 06:50:48;;;;;;;8.43;4.18;;;18.00;90.60;;;;;;4960320;28;20050;-74
2023/07/27 06:53:13;;;;;;;7.30;3.72;;;18.00;90.70;;;;;;4965909;28;20464;-74
2023/07/27 06:55:39;;;;;;;8.07;4.28;;;18.10;90.80;;;;;;4964396;28;20043;-75
2023/07/27 06:58:05;;;;;;;9.88;4.45;;;18.10;90.80;;;;;;4993635;28;20027;-75
2023/07/27 07:00:31;;;;;;;8.85;4.13;;;18.10;90.80;;;;;;4967405;28;20043;-74
2023/07/27 07:02:58;;;;;;;8.93;3.85;;;18.10;90.90;;;;;;4967622;28;20030;-74
2023/07/27 07:05:23;;;;;;;9.80;3.65;;;18.10;91.00;;;;;;4967558;28;20039;-75
2023/07/27 07:07:49;;;;;;;8.48;3.83;;;18.10;91.00;;;;;;4968919;28;20074;-74
2023/07/27 07:10:15;;;;;;;6.68;3.63;;;18.10;90.70;;;;;;4969250;28;20031;-74
2023/07/27 07:12:41;;;;;;;7.63;3.30;;;18.10;90.80;;;;;;4969743;28;20484;-76
2023/07/27 07:15:07;;;;;;;10.48;4.20;;;18.00;90.70;;;;;;4967045;28;20348;-75
2023/07/27 07:17:32;;;;;;;7.93;3.97;;;18.00;90.90;;;;;;4975141;28;20121;-74
2023/07/27 07:19:58;;;;;;;8.45;3.72;;;18.00;91.00;;;;;;4971548;28;20106;-74
2023/07/27 07:22:24;;;;;;;8.00;4.00;;;18.00;90.70;;;;;;4979806;28;20506;-74
2023/07/27 07:24:50;;;;;;;8.88;4.10;;;18.00;90.90;;;;;;4968695;28;20035;-75
2023/07/27 07:27:15;;;;;;;7.78;3.83;;;18.10;90.90;;;;;;4957608;28;20031;-74
2023/07/27 07:29:41;;;;;;;8.30;3.80;;;18.10;90.50;;;;;;4951560;28;20114;-75
2023/07/27 07:32:07;;;;;;;7.57;3.72;;;18.20;90.60;;;;;;4965416;28;20039;-74
2023/07/27 07:34:33;;;;;;;7.70;3.90;;;18.20;90.40;;;;;;4967911;28;20368;-79
2023/07/27 07:37:02;;;;;;;7.28;3.70;;;18.10;90.50;;;;;;4966352;28;20084;-83
2023/07/27 07:39:28;;;;;;;6.63;2.95;;;18.10;90.30;;;;;;4963619;28;20062;-83
2023/07/27 07:41:54;;;;;;;7.93;3.10;;;18.10;90.30;;;;;;4964875;28;20286;-83
2023/07/27 07:44:19;;;;;;;6.80;3.33;;;18.20;90.10;;;;;;4969132;28;20432;-82
2023/07/27 07:46:45;;;;;;;7.07;3.10;;;18.20;90.00;;;;;;4950988;28;20493;-83
2023/07/27 07:49:11;;;;;;;7.93;2.80;;;18.30;89.90;;;;;;4948542;28;20027;-82
2023/07/27 07:51:36;;;;;;;6.55;2.60;;;18.30;89.60;;;;;;4960463;28;20078;-83
2023/07/27 07:54:02;;;;;;;6.97;2.55;;;18.30;89.40;;;;;;4947604;28;20030;-82
2023/07/27 07:56:28;;;;;;;5.95;2.58;;;18.30;89.50;;;;;;4946324;28;20105;-82
2023/07/27 07:58:53;;;;;;;7.07;2.90;;;18.40;89.40;;;;;;4950556;28;20034;-82
2023/07/27 08:01:19;;;;;;;6.68;2.42;;;18.30;89.40;;;;;;4963427;28;20777;-83
2023/07/27 08:03:45;;;;;;;6.57;2.35;;;18.40;89.50;;;;;;4967556;28;20034;-79
2023/07/27 08:06:11;;;;;;;6.18;2.35;;;18.30;89.70;;;;;;4967870;28;20487;-80
2023/07/27 08:08:37;;;;;;;4.00;2.22;;;18.50;90.00;;;;;;4967700;28;20030;-78
2023/07/27 08:11:03;;;;;;;4.25;2.08;;;18.50;89.90;;;;;;4966983;28;20472;-78
2023/07/27 08:13:30;;;;;;;5.53;2.53;;;18.60;89.90;;;;;;4963905;28;20100;-81
2023/07/27 08:15:56;;;;;;;5.47;2.13;;;18.60;89.70;;;;;;4963891;28;20069;-81
2023/07/27 08:18:22;;;;;;;5.47;2.10;;;18.60;89.60;;;;;;4966137;28;20031;-77
2023/07/27 08:21:05;;;;;;;4.72;1.98;;;18.60;89.70;;;;;;4964750;28;20039;-79
2023/07/27 08:23:30;;;;;;;7.28;2.40;;;18.60;89.60;;;;;;4965537;28;20031;-78
2023/07/27 08:25:57;;;;;;;3.85;2.00;;;18.70;89.80;;;;;;4964974;28;20704;-79
2023/07/27 08:28:23;;;;;;;5.00;2.33;;;18.70;89.60;;;;;;4967113;28;20042;-79
2023/07/27 08:30:49;;;;;;;4.25;1.95;;;18.70;89.60;;;;;;4965418;28;20035;-79
2023/07/27 08:33:15;;;;;;;3.63;1.98;;;18.70;89.70;;;;;;4966465;28;20106;-78
2023/07/27 08:35:41;;;;;;;4.85;1.95;;;18.80;89.70;;;;;;4967663;28;20073;-80
2023/07/27 08:38:07;;;;;;;3.47;1.70;;;18.90;89.80;;;;;;4967121;28;20031;-73
2023/07/27 08:40:33;;;;;;;3.83;2.28;;;18.90;89.70;;;;;;4966690;28;20450;-74
2023/07/27 08:42:59;;;;;;;3.08;1.50;;;18.90;89.70;;;;;;4960252;28;20784;-74
2023/07/27 08:45:25;;;;;;;3.55;1.70;;;19.00;89.90;;;;;;4950846;28;20558;-76
2023/07/27 08:47:53;;;;;;;2.33;1.42;;;19.00;90.10;;;;;;4966189;28;20038;-75
2023/07/27 08:50:19;;;;;;;3.38;1.67;;;19.00;90.20;;;;;;4963910;28;20553;-75
2023/07/27 08:52:46;;;;;;;4.72;2.10;;;19.10;90.10;;;;;;4965693;28;20039;-76
2023/07/27 08:55:12;;;;;;;2.33;1.40;;;19.10;89.90;;;;;;4965151;28;20034;-74
2023/07/27 08:57:38;;;;;;;2.72;1.55;;;19.10;89.80;;;;;;4967062;28;20042;-75
2023/07/27 09:00:04;;;;;;;2.40;1.40;;;19.10;89.90;;;;;;4973016;28;20042;-76
2023/07/27 09:02:29;;;;;;;3.42;1.35;;;19.10;89.90;;;;;;4946906;29;20089;-75
2023/07/27 09:04:56;;;;;;;4.43;1.23;;;19.10;90.00;;;;;;4946277;28;20043;-74
2023/07/27 09:07:21;;;;;;;2.50;1.50;;;19.00;89.90;;;;;;4946166;28;20458;-75
2023/07/27 09:09:51;;;;;;;3.97;1.60;;;19.10;90.20;;;;;;4947646;29;20465;-76
2023/07/27 09:12:18;;;;;;;1.63;1.30;;;19.10;90.20;;;;;;4945504;28;20372;-75
2023/07/27 09:14:43;;;;;;;2.10;1.35;;;19.10;89.90;;;;;;4944397;28;20031;-74
2023/07/27 09:17:09;;;;;;;2.85;1.27;;;19.20;89.90;;;;;;4945004;28;20102;-77
2023/07/27 09:19:40;;;;;;;2.67;1.23;;;19.40;90.00;;;;;;4946742;28;20077;-74
2023/07/27 09:22:07;;;;;;;1.90;1.27;;;19.40;89.40;;;;;;4947886;28;20094;-74
2023/07/27 09:24:34;;;;;;;1.58;1.25;;;19.50;89.60;;;;;;4945161;28;20038;-75
2023/07/27 09:27:01;;;;;;;2.42;1.10;;;19.50;89.40;;;;;;4944008;28;20043;-74
2023/07/27 09:29:27;;;;;;;2.17;1.10;;;19.50;88.80;;;;;;4944670;29;20024;-74
2023/07/27 09:31:58;;;;;;;1.33;1.15;;;19.50;89.10;;;;;;4943431;28;20058;-75
2023/07/27 09:34:28;;;;;;;2.00;1.20;;;19.60;89.00;;;;;;4945855;28;20824;-74
2023/07/27 09:37:01;;;;;;;2.65;1.13;;;19.60;88.80;;;;;;4941826;28;20479;-75
2023/07/27 09:39:28;;;;;;;3.00;1.10;;;19.50;88.80;;;;;;4940702;28;20125;-75
2023/07/27 09:41:54;;;;;;;2.25;1.20;;;19.60;88.90;;;;;;4940352;28;20135;-74
2023/07/27 09:44:21;;;;;;;1.77;1.08;;;19.70;88.60;;;;;;4943678;29;20508;-75
2023/07/27 09:46:47;;;;;;;3.63;1.20;;;19.70;88.40;;;;;;4937727;28;20447;-74
2023/07/27 09:49:14;;;;;;;4.97;1.38;;;19.70;88.50;;;;;;4941208;28;20126;-74
2023/07/27 09:51:40;;;;;;;4.50;1.30;;;19.70;88.20;;;;;;4944622;28;20062;-74
2023/07/27 09:54:06;;;;;;;3.40;1.52;;;19.70;88.50;;;;;;4973028;28;20066;-76
2023/07/27 09:56:33;;;;;;;2.55;1.25;;;19.70;88.70;;;;;;4946073;28;20098;-75
2023/07/27 09:58:59;;;;;;;2.08;1.40;;;19.70;88.70;;;;;;4945473;28;20031;-75
2023/07/27 10:01:26;;;;;;;1.52;1.30;;;19.70;88.40;;;;;;4944807;28;20105;-77
2023/07/27 10:03:57;;;;;;;1.13;1.02;;;19.80;88.10;;;;;;4946273;29;20173;-74
2023/07/27 10:06:27;;;;;;;3.15;1.10;;;19.90;88.20;;;;;;4943005;28;20067;-75
2023/07/27 10:08:54;;;;;;;2.75;1.40;;;19.80;87.80;;;;;;4947701;28;20066;-73
2023/07/27 10:11:30;;;;;;;3.20;1.50;;;19.90;87.90;;;;;;4959517;28;20039;-74
2023/07/27 10:14:15;;;;;;;1.60;1.25;;;19.80;87.30;;;;;;4965255;28;20390;-76
2023/07/27 10:16:55;;;;;;;3.08;1.38;;;19.80;87.80;;;;;;4950864;28;20048;-76
2023/07/27 10:19:21;;;;;;;3.08;1.55;;;20.00;87.70;;;;;;4944241;29;20431;-75
2023/07/27 10:21:49;;;;;;;2.95;1.40;;;20.20;87.80;;;;;;4943847;28;20035;-75
2023/07/27 10:24:23;;;;;;;2.88;1.42;;;20.20;86.80;;;;;;4944878;29;20472;-76
2023/07/27 10:26:52;;;;;;;3.15;1.52;;;20.30;87.00;;;;;;4945215;28;20042;-77
2023/07/27 10:29:20;;;;;;;2.22;1.45;;;20.20;86.40;;;;;;4945590;28;20027;-76
2023/07/27 10:32:06;;;;;;;2.03;1.50;;;20.00;87.30;;;;;;4944534;28;20043;-77
2023/07/27 10:34:33;;;;;;;2.63;1.40;;;20.10;87.40;;;;;;4945525;28;20494;-75
2023/07/27 10:37:01;;;;;;;1.88;1.33;;;20.20;87.50;;;;;;4949278;28;20035;-74
2023/07/27 10:39:31;;;;;;;2.20;1.58;;;20.30;87.20;;;;;;4949069;28;20054;-74
2023/07/27 10:42:14;;;;;;;2.70;1.40;;;20.30;87.00;;;;;;4941472;28;20055;-75
2023/07/27 10:44:42;;;;;;;3.03;1.40;;;20.20;87.20;;;;;;4946467;28;20035;-72
2023/07/27 10:47:31;;;;;;;3.00;1.27;;;20.30;87.50;;;;;;4950515;28;20035;-74
2023/07/27 10:49:58;;;;;;;2.20;1.35;;;20.20;86.80;;;;;;4958850;28;20031;-74
2023/07/27 10:52:26;;;;;;;3.00;1.73;;;20.10;87.20;;;;;;4950744;29;20727;-75
2023/07/27 10:54:53;;;;;;;2.53;1.35;;;20.10;87.50;;;;;;4953160;28;20078;-75
2023/07/27 10:57:20;;;;;;;3.75;1.63;;;20.00;87.60;;;;;;4952338;28;20142;-77
2023/07/27 10:59:48;;;;;;;2.95;1.60;;;19.90;88.00;;;;;;4954133;28;20106;-75
2023/07/27 11:02:21;;;;;;;3.50;1.70;;;19.90;88.30;;;;;;4954469;28;20035;-75
2023/07/27 11:04:54;;;;;;;1.90;1.33;;;20.10;88.00;;;;;;4944096;28;20015;-76
2023/07/27 11:07:32;;;;;;;1.42;1.27;;;20.20;87.50;;;;;;4960104;28;20129;-76
2023/07/27 11:09:59;;;;;;;2.50;1.60;;;20.30;87.30;;;;;;4966738;28;20743;-76
2023/07/27 11:12:25;;;;;;;3.05;1.25;;;20.30;87.30;;;;;;4945165;28;20035;-75
2023/07/27 11:14:52;;;;;;;2.65;1.33;;;20.30;86.60;;;;;;4945781;28;20027;-75
2023/07/27 11:17:24;;;;;;;3.05;1.40;;;20.10;86.70;;;;;;4945260;28;20043;-74
2023/07/27 11:19:51;;;;;;;2.10;1.50;;;20.00;87.60;;;;;;4944308;28;20114;-75
2023/07/27 11:22:17;;;;;;;1.52;1.20;;;20.00;87.70;;;;;;4945808;28;20034;-75
2023/07/27 11:24:43;;;;;;;4.00;1.73;;;20.00;87.40;;;;;;4945269;28;20035;-77
2023/07/27 11:27:10;;;;;;;3.72;1.83;;;19.90;87.80;;;;;;4973671;28;20098;-75
2023/07/27 11:29:40;;;;;;;2.67;1.60;;;20.10;87.30;;;;;;4946692;28;20035;-73
2023/07/27 11:32:06;;;;;;;2.50;1.50;;;20.00;87.40;;;;;;4960205;28;20032;-75
2023/07/27 11:34:32;;;;;;;4.20;1.60;;;19.90;87.60;;;;;;4946358;28;20046;-75
2023/07/27 11:36:59;;;;;;;3.47;1.35;;;19.90;87.40;;;;;;4975834;28;20535;-73
2023/07/27 11:39:25;;;;;;;3.53;1.38;;;19.90;87.30;;;;;;4976704;28;20026;-74
2023/07/27 11:41:52;;;;;;;4.10;1.40;;;20.10;87.20;;;;;;4955539;28;20055;-74
2023/07/27 11:44:22;;;;;;;2.17;1.10;;;20.10;87.10;;;;;;4946673;28;20190;-76
2023/07/27 11:46:51;;;;;;;2.95;1.30;;;20.30;86.90;;;;;;4960695;28;20467;-75
2023/07/27 11:49:20;;;;;;;2.92;1.52;;;20.40;86.30;;;;;;4963340;28;20536;-77
2023/07/27 11:51:46;;;;;;;1.95;1.30;;;20.40;86.70;;;;;;4964454;28;20133;-78
2023/07/27 11:54:27;;;;;;;1.70;1.33;;;20.30;86.60;;;;;;4965286;28;20030;-77
2023/07/27 11:56:54;;;;;;;2.97;1.67;;;20.20;87.30;;;;;;4965134;28;20077;-77
2023/07/27 11:59:21;;;;;;;2.85;1.40;;;20.10;87.40;;;;;;4965754;28;20031;-78
2023/07/27 12:01:51;;;;;;;2.08;1.58;;;20.10;87.80;;;;;;4966125;28;20082;-78
2023/07/27 12:04:18;;;;;;;2.40;1.30;;;20.10;87.80;;;;;;4967293;28;20035;-78
2023/07/27 12:06:45;;;;;;;3.40;1.17;;;20.10;87.70;;;;;;4965629;28;20105;-77
2023/07/27 12:09:11;;;;;;;2.80;1.33;;;20.00;87.10;;;;;;4966169;28;20473;-75
2023/07/27 12:11:38;;;;;;;3.42;1.50;;;20.10;87.70;;;;;;4952141;28;20039;-78
2023/07/27 12:14:08;;;;;;;2.72;1.30;;;20.10;87.50;;;;;;4948875;28;20027;-75
2023/07/27 12:16:44;;;;;;;2.55;1.30;;;20.10;87.20;;;;;;4947041;28;20520;-75
2023/07/27 12:19:10;;;;;;;1.08;0.98;;;20.10;86.80;;;;;;4946831;28;20476;-77
2023/07/27 12:21:38;;;;;;;1.13;1.00;;;20.20;86.20;;;;;;4960612;28;20081;-76
2023/07/27 12:24:11;;;;;;;1.20;1.00;;;20.30;86.40;;;;;;4964213;28;20432;-77
2023/07/27 12:26:39;;;;;;;1.35;1.10;;;20.40;86.20;;;;;;4965393;28;20039;-77
2023/07/27 12:29:05;;;;;;;1.95;1.30;;;20.30;86.70;;;;;;4965849;28;20089;-78
2023/07/27 12:31:34;;;;;;;2.53;1.30;;;20.30;86.40;;;;;;4965583;28;20039;-78
2023/07/27 12:34:00;;;;;;;1.73;1.33;;;20.20;86.20;;;;;;4966420;28;20031;-77
2023/07/27 12:36:25;;;;;;;1.33;0.90;;;20.20;86.20;;;;;;4965142;28;20057;-75
2023/07/27 12:38:53;;;;;;;1.50;1.00;;;20.10;86.20;;;;;;4967055;28;20033;-75
2023/07/27 12:41:18;;;;;;;2.72;1.13;;;20.10;86.40;;;;;;4956073;28;20051;-76
2023/07/27 12:43:44;;;;;;;2.08;1.10;;;20.10;86.50;;;;;;4946764;28;20090;-75